createdAt,value
2023-09-13T00:01:01.881Z,74.40
2023-09-13T00:03:52.596Z,74.29
2023-09-13T00:06:43.274Z,74.09
2023-09-13T00:09:33.759Z,74.03
2023-09-13T00:12:24.244Z,74.09
2023-09-13T00:15:15.045Z,74.10
2023-09-13T00:18:05.840Z,74.33
2023-09-13T00:20:56.397Z,74.34
2023-09-13T00:23:47.933Z,74.33
2023-09-13T00:26:38.418Z,74.09
2023-09-13T00:29:31.651Z,74.23
2023-09-13T00:32:21.854Z,74.50
2023-09-13T00:35:12.546Z,74.62
2023-09-13T00:38:03.087Z,74.69
2023-09-13T00:40:54.089Z,74.69
2023-09-13T00:43:44.738Z,74.76
2023-09-13T00:46:36.017Z,74.59
2023-09-13T00:49:27.918Z,74.85
2023-09-13T00:52:18.977Z,75.15
2023-09-13T00:55:11.363Z,75.16
2023-09-13T00:58:02.928Z,75.42
2023-09-13T01:00:55.278Z,75.60
2023-09-13T01:03:45.909Z,75.54
2023-09-13T01:06:38.906Z,75.64
2023-09-13T01:09:29.847Z,75.67
2023-09-13T01:12:23.287Z,75.85
2023-09-13T01:15:14.028Z,75.86
2023-09-13T01:18:07.465Z,76.08
2023-09-13T01:21:07.829Z,76.33
2023-09-13T01:24:12.166Z,76.45
2023-09-13T01:27:10.356Z,76.65
2023-09-13T01:30:02.294Z,76.89
2023-09-13T01:32:53.508Z,76.90
2023-09-13T01:35:44.847Z,76.82
2023-09-13T01:38:35.344Z,76.68
2023-09-13T01:41:28.281Z,76.80
2023-09-13T01:44:19.211Z,77.03
2023-09-13T01:47:10.164Z,77.28
2023-09-13T01:50:00.817Z,77.34
2023-09-13T01:52:51.388Z,77.22
2023-09-13T01:56:00.727Z,77.14
2023-09-13T01:58:55.336Z,77.01
2023-09-13T02:01:54.766Z,76.99
2023-09-13T02:04:54.929Z,77.25
2023-09-13T02:07:47.750Z,77.08
2023-09-13T02:10:40.679Z,76.95
2023-09-13T02:13:31.193Z,76.79
2023-09-13T02:16:22.896Z,76.78
2023-09-13T02:19:13.475Z,76.88
2023-09-13T02:22:04.075Z,76.89
2023-09-13T02:24:55.124Z,77.07
2023-09-13T02:27:45.760Z,77.20
2023-09-13T02:30:37.305Z,77.21
2023-09-13T02:33:27.925Z,76.99
2023-09-13T02:36:21.183Z,77.21
2023-09-13T02:39:31.954Z,77.20
2023-09-13T02:42:22.567Z,77.25
2023-09-13T02:45:13.357Z,77.48
2023-09-13T02:48:03.981Z,77.62
2023-09-13T02:50:54.582Z,77.64
2023-09-13T02:53:45.372Z,77.55
2023-09-13T02:56:36.125Z,77.50
2023-09-13T02:59:26.948Z,77.69
2023-09-13T03:02:17.602Z,77.86
2023-09-13T03:05:08.954Z,77.79
2023-09-13T03:08:00.563Z,77.93
2023-09-13T03:10:50.968Z,78.04
2023-09-13T03:13:43.824Z,78.24
2023-09-13T03:16:34.859Z,78.53
2023-09-13T03:19:26.068Z,78.40
2023-09-13T03:22:17.291Z,78.55
2023-09-13T03:25:08.368Z,78.44
2023-09-13T03:27:59.518Z,78.68
2023-09-13T03:30:50.087Z,78.90
2023-09-13T03:33:42.178Z,78.90
2023-09-13T03:36:33.026Z,78.73
2023-09-13T03:39:27.005Z,79.00
2023-09-13T03:42:17.398Z,79.02
2023-09-13T03:45:08.827Z,79.08
2023-09-13T03:47:59.330Z,79.15
2023-09-13T03:50:50.234Z,78.85
2023-09-13T03:53:40.832Z,78.88
2023-09-13T03:56:31.616Z,78.84
2023-09-13T03:59:26.230Z,78.60
2023-09-13T04:02:16.861Z,78.46
2023-09-13T04:05:08.014Z,78.75
2023-09-13T04:07:58.646Z,78.91
2023-09-13T04:10:49.147Z,78.98
2023-09-13T04:13:39.576Z,79.21
2023-09-13T04:16:30.129Z,79.30
2023-09-13T04:19:20.665Z,79.15
2023-09-13T04:22:12.380Z,79.21
2023-09-13T04:25:03.156Z,79.08
2023-09-13T04:27:53.815Z,79.54
2023-09-13T04:30:44.587Z,79.82
2023-09-13T04:33:49.178Z,79.63
2023-09-13T04:36:40.179Z,79.89
2023-09-13T04:39:32.766Z,80.00
2023-09-13T04:42:23.142Z,80.35
2023-09-13T04:45:13.793Z,80.55
2023-09-13T04:48:04.926Z,80.50
2023-09-13T04:50:55.479Z,80.27
2023-09-13T04:53:46.217Z,80.52
2023-09-13T04:56:37.432Z,80.76
2023-09-13T04:59:42.391Z,80.86
2023-09-13T05:02:33.142Z,80.91
2023-09-13T05:05:24.000Z,81.05
2023-09-13T05:08:14.411Z,81.28
2023-09-13T05:11:05.595Z,81.35
2023-09-13T05:14:09.987Z,81.53
2023-09-13T05:17:00.612Z,81.90
2023-09-13T05:19:51.228Z,82.10
2023-09-13T05:22:41.759Z,81.89
2023-09-13T05:25:32.327Z,81.59
2023-09-13T05:28:22.906Z,81.79
2023-09-13T05:31:13.491Z,82.05
2023-09-13T05:34:04.031Z,82.08
2023-09-13T05:36:54.569Z,81.98
2023-09-13T05:39:45.110Z,81.76
2023-09-13T05:42:36.562Z,81.61
2023-09-13T05:45:27.050Z,81.60
2023-09-13T05:48:17.573Z,81.53
2023-09-13T05:51:08.074Z,81.49
2023-09-13T05:53:58.652Z,81.23
2023-09-13T05:56:49.137Z,81.42
2023-09-13T05:59:41.229Z,81.74
2023-09-13T06:02:31.530Z,81.82
2023-09-13T06:05:22.168Z,82.09
2023-09-13T06:08:12.645Z,82.22
2023-09-13T06:11:03.146Z,82.20
2023-09-13T06:13:54.370Z,82.31
2023-09-13T06:16:44.995Z,82.28
2023-09-13T06:19:35.617Z,82.22
2023-09-13T06:22:26.759Z,82.64
2023-09-13T06:25:18.685Z,82.90
2023-09-13T06:28:09.391Z,82.84
2023-09-13T06:31:03.814Z,82.55
2023-09-13T06:33:55.486Z,82.38
2023-09-13T06:36:46.806Z,82.47
2023-09-13T06:39:38.024Z,82.66
2023-09-13T06:42:29.166Z,82.91
2023-09-13T06:45:26.435Z,82.81
2023-09-13T06:48:19.917Z,82.77
2023-09-13T06:51:48.900Z,82.81
2023-09-13T06:54:25.465Z,82.52
2023-09-13T06:57:20.075Z,81.71
2023-09-13T07:00:16.649Z,81.22
2023-09-13T07:03:14.201Z,80.80
2023-09-13T07:06:06.910Z,80.03
2023-09-13T07:08:57.964Z,78.93
2023-09-13T07:11:48.443Z,77.24
2023-09-13T07:14:38.940Z,75.58
2023-09-13T07:17:29.520Z,74.97
2023-09-13T07:20:20.077Z,74.53
2023-09-13T07:23:10.641Z,74.01
2023-09-13T07:26:01.654Z,73.85
2023-09-13T07:28:52.249Z,73.60
2023-09-13T07:31:42.793Z,73.20
2023-09-13T07:34:33.497Z,72.86
2023-09-13T07:37:24.031Z,72.81
2023-09-13T07:40:14.661Z,72.62
2023-09-13T07:43:06.294Z,72.66
2023-09-13T07:45:56.815Z,72.59
2023-09-13T07:48:47.329Z,72.42
2023-09-13T07:51:37.860Z,72.12
2023-09-13T07:54:29.350Z,71.66
2023-09-13T07:57:19.907Z,71.98
2023-09-13T08:00:11.165Z,72.05
2023-09-13T08:03:02.883Z,71.21
2023-09-13T08:05:53.584Z,69.76
2023-09-13T08:08:44.454Z,67.30
2023-09-13T08:11:35.364Z,65.09
2023-09-13T08:14:25.889Z,62.89
2023-09-13T08:17:17.777Z,61.66
2023-09-13T08:20:15.671Z,60.16
2023-09-13T08:23:06.444Z,59.40
2023-09-13T08:26:03.278Z,58.92
2023-09-13T08:29:05.206Z,58.02
2023-09-13T08:31:55.395Z,57.18
2023-09-13T08:34:46.080Z,55.40
2023-09-13T08:37:36.716Z,53.48
2023-09-13T08:40:27.200Z,52.06
2023-09-13T08:43:20.412Z,50.40
2023-09-13T08:46:12.397Z,49.14
2023-09-13T08:49:03.637Z,47.57
2023-09-13T08:51:54.690Z,46.25
2023-09-13T08:54:58.653Z,45.02
2023-09-13T08:57:50.457Z,44.00
2023-09-13T09:00:42.650Z,43.20
2023-09-13T09:03:33.892Z,42.90
2023-09-13T09:06:25.064Z,42.37
2023-09-13T09:09:16.032Z,42.29
2023-09-13T09:12:09.301Z,41.89
2023-09-13T09:14:59.412Z,40.81
2023-09-13T09:17:51.315Z,39.68
2023-09-13T09:20:45.244Z,39.14
2023-09-13T09:23:36.463Z,38.81
2023-09-13T09:26:27.244Z,38.61
2023-09-13T09:29:21.467Z,39.51
2023-09-13T09:32:14.367Z,40.46
2023-09-13T09:35:06.404Z,41.12
2023-09-13T09:37:56.937Z,41.61
2023-09-13T09:40:47.689Z,42.21
2023-09-13T09:43:38.568Z,42.57
2023-09-13T09:46:29.287Z,42.78
2023-09-13T09:49:19.835Z,43.20
2023-09-13T09:52:10.370Z,43.70
2023-09-13T09:55:00.987Z,44.46
2023-09-13T09:57:52.680Z,45.04
2023-09-13T10:00:47.121Z,45.26
2023-09-13T10:03:37.834Z,46.13
2023-09-13T10:06:28.379Z,46.71
2023-09-13T10:09:18.924Z,46.72
2023-09-13T10:12:10.756Z,47.23
2023-09-13T10:15:05.688Z,47.08
2023-09-13T10:17:57.835Z,45.48
2023-09-13T10:20:48.601Z,44.28
2023-09-13T10:23:42.427Z,44.05
2023-09-13T10:26:33.858Z,44.37
2023-09-13T10:29:27.357Z,44.39
2023-09-13T10:32:19.376Z,43.11
2023-09-13T10:35:13.180Z,42.80
2023-09-13T10:38:05.643Z,42.70
2023-09-13T10:41:00.851Z,42.55
2023-09-13T10:43:51.469Z,42.82
2023-09-13T10:46:43.321Z,43.89
2023-09-13T10:49:34.373Z,44.73
2023-09-13T10:52:25.267Z,45.25
2023-09-13T10:55:15.866Z,45.42
2023-09-13T10:58:09.774Z,45.53
2023-09-13T11:01:00.548Z,45.71
2023-09-13T11:03:51.274Z,45.98
2023-09-13T11:06:42.901Z,46.71
2023-09-13T11:09:33.406Z,47.79
2023-09-13T11:12:28.721Z,48.91
2023-09-13T11:15:23.281Z,49.06
2023-09-13T11:18:17.280Z,49.59
2023-09-13T11:21:19.372Z,49.80
2023-09-13T11:24:26.268Z,50.38
2023-09-13T11:27:21.740Z,50.86
2023-09-13T11:30:12.430Z,50.24
2023-09-13T11:33:04.852Z,50.82
2023-09-13T11:35:56.433Z,51.65
2023-09-13T11:38:47.281Z,52.67
2023-09-13T11:41:54.168Z,53.57
2023-09-13T11:45:02.024Z,54.62
2023-09-13T11:47:54.373Z,55.42
2023-09-13T11:50:49.710Z,55.76
2023-09-13T11:53:41.353Z,56.15
2023-09-13T11:56:45.275Z,56.52
2023-09-13T11:59:38.638Z,56.70
2023-09-13T12:02:32.697Z,56.58
2023-09-13T12:05:35.213Z,55.84
2023-09-13T12:08:37.285Z,55.30
2023-09-13T12:11:28.228Z,54.93
2023-09-13T12:14:30.917Z,54.50
2023-09-13T12:17:40.026Z,54.63
2023-09-13T12:20:32.867Z,54.18
2023-09-13T12:23:23.418Z,53.11
2023-09-13T12:26:14.673Z,52.67
2023-09-13T12:29:06.409Z,52.31
2023-09-13T12:31:59.249Z,51.40
2023-09-13T12:34:50.082Z,51.23
2023-09-13T12:37:40.621Z,50.79
2023-09-13T12:40:31.271Z,50.81
2023-09-13T12:43:22.351Z,50.40
2023-09-13T12:46:15.556Z,48.20
2023-09-13T12:49:06.157Z,46.76
2023-09-13T12:51:56.745Z,45.30
2023-09-13T12:54:47.507Z,45.01
2023-09-13T12:57:38.174Z,44.40
2023-09-13T13:00:28.836Z,44.26
2023-09-13T13:03:19.563Z,44.24
2023-09-13T13:06:10.480Z,44.18
2023-09-13T13:09:09.964Z,44.23
2023-09-13T13:12:00.132Z,44.87
2023-09-13T13:14:53.713Z,45.51
2023-09-13T13:17:47.473Z,46.00
2023-09-13T13:20:43.881Z,46.37
2023-09-13T13:23:43.841Z,47.42
2023-09-13T13:26:34.630Z,49.01
2023-09-13T13:29:25.103Z,49.98
2023-09-13T13:32:15.651Z,50.72
2023-09-13T13:35:06.541Z,51.37
2023-09-13T13:37:57.148Z,51.96
2023-09-13T13:40:47.642Z,52.54
2023-09-13T13:43:38.808Z,52.94
2023-09-13T13:46:30.216Z,53.38
2023-09-13T13:49:20.459Z,54.06
2023-09-13T13:52:10.892Z,54.50
2023-09-13T13:55:01.297Z,54.94
2023-09-13T13:57:51.939Z,55.38
2023-09-13T14:00:42.387Z,55.94
2023-09-13T14:03:33.085Z,56.09
2023-09-13T14:06:23.738Z,56.71
2023-09-13T14:09:15.050Z,57.37
2023-09-13T14:12:06.733Z,57.36
2023-09-13T14:14:57.253Z,57.55
2023-09-13T14:17:47.812Z,57.99
2023-09-13T14:20:42.840Z,58.52
2023-09-13T14:23:33.201Z,59.00
2023-09-13T14:26:23.560Z,59.28
2023-09-13T14:29:15.949Z,59.52
2023-09-13T14:32:07.038Z,59.56
2023-09-13T14:35:00.770Z,59.36
2023-09-13T14:37:51.336Z,58.66
2023-09-13T14:40:41.865Z,58.30
2023-09-13T14:43:32.371Z,58.08
2023-09-13T14:46:22.868Z,57.89
2023-09-13T14:49:13.293Z,57.59
2023-09-13T14:52:03.769Z,57.26
2023-09-13T14:54:56.622Z,57.26
2023-09-13T14:57:48.408Z,57.04
2023-09-13T15:00:38.876Z,57.60
2023-09-13T15:03:30.842Z,57.81
2023-09-13T15:06:21.341Z,57.94
2023-09-13T15:09:12.105Z,57.92
2023-09-13T15:12:02.901Z,58.37
2023-09-13T15:14:53.303Z,58.86
2023-09-13T15:17:43.803Z,59.18
2023-09-13T15:20:34.807Z,58.36
2023-09-13T15:23:25.274Z,57.59
2023-09-13T15:26:15.689Z,57.85
2023-09-13T15:29:06.217Z,57.87
2023-09-13T15:34:49.954Z,57.30
2023-09-13T15:37:40.346Z,57.20
2023-09-13T15:40:30.806Z,57.46
2023-09-13T15:43:22.213Z,57.74
2023-09-13T15:46:14.730Z,57.64
2023-09-13T15:49:05.203Z,57.72
2023-09-13T15:51:55.677Z,58.12
2023-09-13T15:54:46.133Z,58.53
2023-09-13T15:57:36.577Z,59.13
2023-09-13T16:00:27.100Z,59.44
2023-09-13T16:03:18.494Z,59.79
2023-09-13T16:06:09.034Z,60.18
2023-09-13T16:08:59.473Z,60.62
2023-09-13T16:11:49.937Z,61.19
2023-09-13T16:14:40.904Z,61.83
2023-09-13T16:17:31.300Z,62.76
2023-09-13T16:20:21.794Z,63.77
2023-09-13T16:23:14.179Z,64.68
2023-09-13T16:26:04.606Z,65.41
2023-09-13T16:28:55.089Z,66.62
2023-09-13T16:31:45.571Z,67.39
2023-09-13T16:34:36.010Z,67.84
2023-09-13T16:37:26.511Z,68.28
2023-09-13T16:40:17.131Z,68.94
2023-09-13T16:43:07.606Z,69.44
2023-09-13T16:45:58.630Z,70.20
2023-09-13T16:48:49.136Z,70.46
2023-09-13T16:51:39.711Z,70.59
2023-09-13T16:54:30.164Z,71.29
2023-09-13T16:57:21.174Z,71.57
2023-09-13T17:00:12.308Z,71.96
2023-09-13T17:03:02.848Z,72.38
2023-09-13T17:05:53.429Z,72.61
2023-09-13T17:08:44.165Z,73.08
2023-09-13T17:11:35.302Z,73.95
2023-09-13T17:14:25.455Z,74.53
2023-09-13T17:17:22.813Z,75.15
2023-09-13T17:20:13.558Z,74.92
2023-09-13T17:23:04.007Z,74.18
2023-09-13T17:25:54.757Z,73.73
2023-09-13T17:28:46.188Z,74.28
2023-09-13T17:31:36.925Z,74.47
2023-09-13T17:34:27.399Z,74.35
2023-09-13T17:37:17.907Z,75.06
2023-09-13T17:40:09.733Z,75.47
2023-09-13T17:43:01.148Z,75.40
2023-09-13T17:45:52.490Z,75.65
2023-09-13T17:48:43.248Z,75.99
2023-09-13T17:51:34.478Z,76.66
2023-09-13T17:54:25.022Z,76.88
2023-09-13T17:57:15.573Z,77.46
2023-09-13T18:00:09.249Z,77.96
2023-09-13T18:03:03.639Z,78.46
2023-09-13T18:05:54.385Z,79.07
2023-09-13T18:08:45.097Z,79.45
2023-09-13T18:11:38.104Z,79.84
2023-09-13T18:14:28.645Z,80.06
2023-09-13T18:17:19.823Z,80.29
2023-09-13T18:20:12.957Z,80.69
2023-09-13T18:23:07.009Z,81.25
2023-09-13T18:25:57.412Z,81.80
2023-09-13T18:28:48.347Z,82.14
2023-09-13T18:31:38.975Z,83.13
2023-09-13T18:34:29.849Z,83.56
2023-09-13T18:37:20.368Z,84.04
2023-09-13T18:40:11.583Z,84.35
2023-09-13T18:43:04.310Z,84.91
2023-09-13T18:46:01.372Z,85.34
2023-09-13T18:48:52.134Z,85.72
2023-09-13T18:51:45.781Z,86.14
2023-09-13T18:54:36.797Z,86.86
2023-09-13T18:57:31.363Z,86.91
2023-09-13T19:00:21.657Z,87.11
2023-09-13T19:03:12.355Z,87.56
2023-09-13T19:06:03.787Z,88.16
2023-09-13T19:08:55.100Z,88.52
2023-09-13T19:11:45.799Z,88.32
2023-09-13T19:14:36.383Z,88.23
2023-09-13T19:17:27.644Z,88.43
2023-09-13T19:20:24.735Z,88.82
2023-09-13T19:23:15.289Z,88.93
2023-09-13T19:26:05.998Z,89.10
2023-09-13T19:28:56.507Z,88.79
2023-09-13T19:31:47.148Z,88.88
2023-09-13T19:34:37.760Z,89.01
2023-09-13T19:37:28.252Z,88.98
2023-09-13T19:40:19.000Z,88.92
2023-09-13T19:43:09.509Z,88.48
2023-09-13T19:46:01.989Z,88.35
2023-09-13T19:48:52.668Z,88.52
2023-09-13T19:51:43.281Z,88.63
2023-09-13T19:54:34.506Z,88.58
2023-09-13T19:57:24.766Z,88.54
2023-09-13T20:00:16.316Z,88.75
2023-09-13T20:03:07.148Z,88.90
2023-09-13T20:05:57.666Z,89.20
2023-09-13T20:08:48.449Z,89.28
2023-09-13T20:11:42.587Z,89.91
2023-09-13T20:14:33.418Z,90.01
2023-09-13T20:17:25.442Z,90.10
2023-09-13T20:20:15.504Z,90.32
2023-09-13T20:23:06.309Z,90.58
2023-09-13T20:25:57.598Z,90.91
2023-09-13T20:28:48.312Z,91.53
2023-09-13T20:31:39.124Z,91.35
2023-09-13T20:34:31.803Z,91.27
2023-09-13T20:37:22.367Z,91.79
2023-09-13T20:40:13.678Z,91.42
2023-09-13T20:43:04.122Z,91.15
2023-09-13T20:45:54.928Z,91.75
2023-09-13T20:48:45.836Z,91.88
2023-09-13T20:51:37.757Z,91.67
2023-09-13T20:54:28.972Z,91.99
2023-09-13T20:57:19.739Z,92.06
2023-09-13T21:00:11.244Z,92.22
2023-09-13T21:03:03.558Z,92.42
2023-09-13T21:05:57.622Z,92.38
2023-09-13T21:08:48.500Z,92.45
2023-09-13T21:11:40.043Z,92.66
2023-09-13T21:14:31.096Z,92.57
2023-09-13T21:17:23.963Z,92.47
2023-09-13T21:20:14.958Z,92.54
2023-09-13T21:23:08.887Z,92.27
2023-09-13T21:25:59.615Z,92.22
2023-09-13T21:28:50.783Z,92.36
2023-09-13T21:31:41.271Z,92.36
2023-09-13T21:34:35.025Z,92.28
2023-09-13T21:37:32.162Z,92.32
2023-09-13T21:40:25.039Z,92.49
2023-09-13T21:43:15.651Z,92.60
2023-09-13T21:46:06.675Z,92.63
2023-09-13T21:48:57.492Z,92.56
2023-09-13T21:51:48.367Z,92.43
2023-09-13T21:54:44.188Z,92.32
2023-09-13T21:57:38.691Z,92.15
2023-09-13T22:00:29.499Z,92.21
2023-09-13T22:03:21.219Z,92.28
2023-09-13T22:06:11.826Z,92.27
2023-09-13T22:09:02.556Z,92.26
2023-09-13T22:11:53.831Z,92.10
2023-09-13T22:14:44.544Z,91.90
2023-09-13T22:17:35.142Z,91.74
2023-09-13T22:20:25.840Z,91.54
2023-09-13T22:23:16.318Z,91.48
2023-09-13T22:26:06.875Z,91.31
2023-09-13T22:29:03.201Z,91.38
2023-09-13T22:31:54.131Z,91.31
2023-09-13T22:34:45.341Z,91.31
2023-09-13T22:37:36.330Z,91.10
2023-09-13T22:40:26.891Z,91.12
2023-09-13T22:43:17.426Z,91.03
2023-09-13T22:46:09.660Z,91.11
2023-09-13T22:49:00.351Z,91.29
2023-09-13T22:51:53.092Z,91.25
2023-09-13T22:54:43.677Z,91.14
2023-09-13T22:57:34.347Z,91.20
2023-09-13T23:00:24.990Z,91.30
2023-09-13T23:03:18.160Z,91.38
2023-09-13T23:06:14.779Z,91.32
2023-09-13T23:09:09.880Z,91.37
2023-09-13T23:11:59.953Z,91.37
2023-09-13T23:14:50.452Z,91.15
2023-09-13T23:17:41.061Z,91.02
2023-09-13T23:20:31.618Z,90.76
2023-09-13T23:23:23.694Z,90.71
2023-09-13T23:26:14.203Z,90.50
2023-09-13T23:29:06.723Z,90.34
2023-09-13T23:31:57.065Z,90.22
2023-09-13T23:34:47.706Z,90.02
2023-09-13T23:37:39.086Z,90.02
2023-09-13T23:40:30.381Z,89.99
2023-09-13T23:43:20.808Z,90.08
2023-09-13T23:46:12.007Z,90.03
2023-09-13T23:49:02.652Z,90.07
2023-09-13T23:51:53.206Z,90.19
2023-09-13T23:54:43.882Z,90.05
2023-09-13T23:57:34.546Z,90.03
